Terminal Aerodrome Forecast
Issued by NWS

Home | Current Version | Previous Version | Text Only | Print | Product List | Glossary On
Versions: 1 2 3 4 5 6 7 8 9 10 11 12 13 14 15 16 17 18 19 20 21 22 23 24
000
FTUS43 KDVN 242300
TAFCID
TAF
KCID 242326Z 2500/2524 30017KT P6SM SKC
     FM250200 33009KT P6SM SKC
     FM251200 07004KT P6SM BKN100
     FM251700 10007KT P6SM BKN025
     FM251900 08008KT 1SM -SN BR OVC009=

USA.gov is the U.S. government's official web portal to all federal, state and local government web resources and services.